sensor_id;sensor_type;location;lat;lon;timestamp;P1;durP1;ratioP1;P2;durP2;ratioP2
4726;SDS011;2377;51.734;8.950;2023-04-22T00:01:35;6.70;;;3.87;;
4726;SDS011;2377;51.734;8.950;2023-04-22T00:04:02;11.53;;;4.10;;
4726;SDS011;2377;51.734;8.950;2023-04-22T00:06:29;7.40;;;4.40;;
4726;SDS011;2377;51.734;8.950;2023-04-22T00:08:56;6.17;;;3.90;;
4726;SDS011;2377;51.734;8.950;2023-04-22T00:11:23;6.27;;;4.33;;
4726;SDS011;2377;51.734;8.950;2023-04-22T00:13:50;6.50;;;3.90;;
4726;SDS011;2377;51.734;8.950;2023-04-22T00:16:17;7.30;;;3.77;;
4726;SDS011;2377;51.734;8.950;2023-04-22T00:18:47;7.30;;;3.97;;
4726;SDS011;2377;51.734;8.950;2023-04-22T00:21:14;6.97;;;4.17;;
4726;SDS011;2377;51.734;8.950;2023-04-22T00:23:40;14.73;;;4.60;;
4726;SDS011;2377;51.734;8.950;2023-04-22T00:26:09;4.93;;;3.63;;
4726;SDS011;2377;51.734;8.950;2023-04-22T00:28:36;8.63;;;4.63;;
4726;SDS011;2377;51.734;8.950;2023-04-22T00:31:03;8.07;;;4.67;;
4726;SDS011;2377;51.734;8.950;2023-04-22T00:33:30;7.13;;;4.53;;
4726;SDS011;2377;51.734;8.950;2023-04-22T00:35:58;7.10;;;4.63;;
4726;SDS011;2377;51.734;8.950;2023-04-22T00:38:25;7.00;;;4.40;;
4726;SDS011;2377;51.734;8.950;2023-04-22T00:40:52;5.23;;;3.53;;
4726;SDS011;2377;51.734;8.950;2023-04-22T00:43:19;6.23;;;4.00;;
4726;SDS011;2377;51.734;8.950;2023-04-22T00:45:46;6.23;;;3.67;;
4726;SDS011;2377;51.734;8.950;2023-04-22T00:48:14;7.70;;;4.23;;
4726;SDS011;2377;51.734;8.950;2023-04-22T00:50:41;7.90;;;4.03;;
4726;SDS011;2377;51.734;8.950;2023-04-22T00:53:09;5.77;;;3.57;;
4726;SDS011;2377;51.734;8.950;2023-04-22T00:55:36;9.43;;;4.50;;
4726;SDS011;2377;51.734;8.950;2023-04-22T00:58:03;9.50;;;4.80;;
4726;SDS011;2377;51.734;8.950;2023-04-22T01:00:31;5.70;;;3.93;;
4726;SDS011;2377;51.734;8.950;2023-04-22T01:02:59;8.63;;;3.77;;
4726;SDS011;2377;51.734;8.950;2023-04-22T01:05:27;5.90;;;4.10;;
4726;SDS011;2377;51.734;8.950;2023-04-22T01:07:56;8.00;;;4.77;;
4726;SDS011;2377;51.734;8.950;2023-04-22T01:10:25;5.70;;;4.07;;
4726;SDS011;2377;51.734;8.950;2023-04-22T01:12:54;9.53;;;4.53;;
4726;SDS011;2377;51.734;8.950;2023-04-22T01:15:21;6.60;;;4.23;;
4726;SDS011;2377;51.734;8.950;2023-04-22T01:17:48;6.27;;;4.07;;
4726;SDS011;2377;51.734;8.950;2023-04-22T01:20:18;5.50;;;3.83;;
4726;SDS011;2377;51.734;8.950;2023-04-22T01:22:46;6.87;;;4.07;;
4726;SDS011;2377;51.734;8.950;2023-04-22T01:25:17;6.30;;;4.33;;
4726;SDS011;2377;51.734;8.950;2023-04-22T01:27:44;6.10;;;3.70;;
4726;SDS011;2377;51.734;8.950;2023-04-22T01:30:11;5.83;;;4.40;;
4726;SDS011;2377;51.734;8.950;2023-04-22T01:32:39;6.23;;;3.90;;
4726;SDS011;2377;51.734;8.950;2023-04-22T01:35:07;8.23;;;4.03;;
4726;SDS011;2377;51.734;8.950;2023-04-22T01:37:34;9.40;;;4.37;;
4726;SDS011;2377;51.734;8.950;2023-04-22T01:40:01;5.93;;;4.27;;
4726;SDS011;2377;51.734;8.950;2023-04-22T01:42:31;10.30;;;4.90;;
4726;SDS011;2377;51.734;8.950;2023-04-22T01:44:58;6.93;;;3.97;;
4726;SDS011;2377;51.734;8.950;2023-04-22T01:47:25;6.43;;;4.57;;
4726;SDS011;2377;51.734;8.950;2023-04-22T01:49:52;5.37;;;4.27;;
4726;SDS011;2377;51.734;8.950;2023-04-22T01:52:19;9.10;;;4.63;;
4726;SDS011;2377;51.734;8.950;2023-04-22T01:54:46;7.17;;;4.37;;
4726;SDS011;2377;51.734;8.950;2023-04-22T01:57:14;6.80;;;4.10;;
4726;SDS011;2377;51.734;8.950;2023-04-22T01:59:42;7.87;;;4.73;;
4726;SDS011;2377;51.734;8.950;2023-04-22T02:02:09;6.60;;;4.53;;
4726;SDS011;2377;51.734;8.950;2023-04-22T02:04:36;7.37;;;4.30;;
4726;SDS011;2377;51.734;8.950;2023-04-22T02:07:03;6.90;;;4.50;;
4726;SDS011;2377;51.734;8.950;2023-04-22T02:09:32;11.80;;;5.60;;
4726;SDS011;2377;51.734;8.950;2023-04-22T02:11:59;7.33;;;4.70;;
4726;SDS011;2377;51.734;8.950;2023-04-22T02:14:26;10.63;;;5.27;;
4726;SDS011;2377;51.734;8.950;2023-04-22T02:16:54;8.07;;;5.27;;
4726;SDS011;2377;51.734;8.950;2023-04-22T02:19:23;15.23;;;5.13;;
4726;SDS011;2377;51.734;8.950;2023-04-22T02:21:50;7.20;;;4.40;;
4726;SDS011;2377;51.734;8.950;2023-04-22T02:24:16;8.20;;;4.57;;
4726;SDS011;2377;51.734;8.950;2023-04-22T02:26:43;5.40;;;4.30;;
4726;SDS011;2377;51.734;8.950;2023-04-22T02:29:11;6.80;;;4.43;;
4726;SDS011;2377;51.734;8.950;2023-04-22T02:31:38;5.93;;;4.37;;
4726;SDS011;2377;51.734;8.950;2023-04-22T02:34:06;8.90;;;5.10;;
4726;SDS011;2377;51.734;8.950;2023-04-22T02:36:33;6.67;;;4.90;;
4726;SDS011;2377;51.734;8.950;2023-04-22T02:39:00;12.27;;;4.53;;
4726;SDS011;2377;51.734;8.950;2023-04-22T02:41:28;11.10;;;4.80;;
4726;SDS011;2377;51.734;8.950;2023-04-22T02:43:55;8.20;;;4.30;;
4726;SDS011;2377;51.734;8.950;2023-04-22T02:46:22;8.10;;;4.30;;
4726;SDS011;2377;51.734;8.950;2023-04-22T02:48:49;9.13;;;4.20;;
4726;SDS011;2377;51.734;8.950;2023-04-22T02:51:17;6.50;;;4.27;;
4726;SDS011;2377;51.734;8.950;2023-04-22T02:53:45;8.87;;;4.70;;
4726;SDS011;2377;51.734;8.950;2023-04-22T02:56:12;6.20;;;4.20;;
4726;SDS011;2377;51.734;8.950;2023-04-22T02:58:39;8.20;;;4.87;;
4726;SDS011;2377;51.734;8.950;2023-04-22T03:01:06;7.07;;;4.57;;
4726;SDS011;2377;51.734;8.950;2023-04-22T03:03:32;7.70;;;4.50;;
4726;SDS011;2377;51.734;8.950;2023-04-22T03:05:59;7.93;;;4.33;;
4726;SDS011;2377;51.734;8.950;2023-04-22T03:08:28;7.20;;;3.70;;
4726;SDS011;2377;51.734;8.950;2023-04-22T03:10:54;6.30;;;4.20;;
4726;SDS011;2377;51.734;8.950;2023-04-22T03:13:21;6.83;;;3.90;;
4726;SDS011;2377;51.734;8.950;2023-04-22T03:15:48;6.10;;;4.10;;
4726;SDS011;2377;51.734;8.950;2023-04-22T03:18:15;13.03;;;4.97;;
4726;SDS011;2377;51.734;8.950;2023-04-22T03:20:42;5.77;;;4.43;;
4726;SDS011;2377;51.734;8.950;2023-04-22T03:23:09;6.23;;;4.20;;
4726;SDS011;2377;51.734;8.950;2023-04-22T03:25:37;6.13;;;4.17;;
4726;SDS011;2377;51.734;8.950;2023-04-22T03:28:04;13.23;;;4.30;;
4726;SDS011;2377;51.734;8.950;2023-04-22T03:30:31;6.67;;;4.03;;
4726;SDS011;2377;51.734;8.950;2023-04-22T03:32:57;6.20;;;4.00;;
4726;SDS011;2377;51.734;8.950;2023-04-22T03:35:24;7.13;;;4.87;;
4726;SDS011;2377;51.734;8.950;2023-04-22T03:37:52;6.07;;;4.30;;
4726;SDS011;2377;51.734;8.950;2023-04-22T03:40:19;7.20;;;4.17;;
4726;SDS011;2377;51.734;8.950;2023-04-22T03:42:47;5.63;;;3.80;;
4726;SDS011;2377;51.734;8.950;2023-04-22T03:45:14;5.47;;;4.27;;
4726;SDS011;2377;51.734;8.950;2023-04-22T03:47:41;5.27;;;4.10;;
4726;SDS011;2377;51.734;8.950;2023-04-22T03:50:09;5.30;;;3.37;;
4726;SDS011;2377;51.734;8.950;2023-04-22T03:52:36;5.50;;;3.77;;
4726;SDS011;2377;51.734;8.950;2023-04-22T03:55:03;6.77;;;5.00;;
4726;SDS011;2377;51.734;8.950;2023-04-22T03:57:31;7.93;;;4.40;;
4726;SDS011;2377;51.734;8.950;2023-04-22T03:59:59;4.33;;;3.50;;
4726;SDS011;2377;51.734;8.950;2023-04-22T04:02:26;5.57;;;3.90;;
4726;SDS011;2377;51.734;8.950;2023-04-22T04:04:53;6.47;;;3.97;;
4726;SDS011;2377;51.734;8.950;2023-04-22T04:07:19;6.67;;;4.27;;
4726;SDS011;2377;51.734;8.950;2023-04-22T04:09:46;5.27;;;3.63;;
4726;SDS011;2377;51.734;8.950;2023-04-22T04:12:13;5.03;;;3.97;;
4726;SDS011;2377;51.734;8.950;2023-04-22T04:14:40;5.67;;;3.87;;
4726;SDS011;2377;51.734;8.950;2023-04-22T04:17:08;5.60;;;4.27;;
4726;SDS011;2377;51.734;8.950;2023-04-22T04:19:38;5.30;;;4.13;;
4726;SDS011;2377;51.734;8.950;2023-04-22T04:22:05;5.87;;;4.40;;
4726;SDS011;2377;51.734;8.950;2023-04-22T04:24:31;5.20;;;4.00;;
4726;SDS011;2377;51.734;8.950;2023-04-22T04:27:00;6.20;;;4.27;;
4726;SDS011;2377;51.734;8.950;2023-04-22T04:29:27;6.40;;;4.30;;
4726;SDS011;2377;51.734;8.950;2023-04-22T04:31:54;6.33;;;4.30;;
4726;SDS011;2377;51.734;8.950;2023-04-22T04:34:22;7.57;;;4.90;;
4726;SDS011;2377;51.734;8.950;2023-04-22T04:36:49;7.23;;;4.77;;
4726;SDS011;2377;51.734;8.950;2023-04-22T04:39:16;7.33;;;4.77;;
4726;SDS011;2377;51.734;8.950;2023-04-22T04:41:44;6.00;;;4.60;;
4726;SDS011;2377;51.734;8.950;2023-04-22T04:44:13;8.20;;;4.97;;
4726;SDS011;2377;51.734;8.950;2023-04-22T04:46:40;7.30;;;4.77;;
4726;SDS011;2377;51.734;8.950;2023-04-22T04:49:07;7.60;;;4.93;;
4726;SDS011;2377;51.734;8.950;2023-04-22T04:51:37;7.30;;;4.90;;
4726;SDS011;2377;51.734;8.950;2023-04-22T04:54:04;8.70;;;4.30;;
4726;SDS011;2377;51.734;8.950;2023-04-22T04:56:31;7.10;;;4.83;;
4726;SDS011;2377;51.734;8.950;2023-04-22T04:58:58;7.63;;;5.00;;
4726;SDS011;2377;51.734;8.950;2023-04-22T05:01:25;6.83;;;4.90;;
4726;SDS011;2377;51.734;8.950;2023-04-22T05:03:52;6.50;;;4.63;;
4726;SDS011;2377;51.734;8.950;2023-04-22T05:06:19;6.80;;;4.63;;
4726;SDS011;2377;51.734;8.950;2023-04-22T05:08:47;8.17;;;4.43;;
4726;SDS011;2377;51.734;8.950;2023-04-22T05:11:14;10.87;;;4.73;;
4726;SDS011;2377;51.734;8.950;2023-04-22T05:13:41;8.50;;;4.77;;
4726;SDS011;2377;51.734;8.950;2023-04-22T05:16:08;6.57;;;4.70;;
4726;SDS011;2377;51.734;8.950;2023-04-22T05:18:35;6.93;;;5.00;;
4726;SDS011;2377;51.734;8.950;2023-04-22T05:21:04;7.13;;;4.83;;
4726;SDS011;2377;51.734;8.950;2023-04-22T05:23:31;8.00;;;5.03;;
4726;SDS011;2377;51.734;8.950;2023-04-22T05:25:59;8.77;;;5.10;;
4726;SDS011;2377;51.734;8.950;2023-04-22T05:28:26;8.83;;;5.07;;
4726;SDS011;2377;51.734;8.950;2023-04-22T05:30:53;6.93;;;3.80;;
4726;SDS011;2377;51.734;8.950;2023-04-22T05:33:20;5.20;;;4.30;;
4726;SDS011;2377;51.734;8.950;2023-04-22T05:35:47;6.40;;;4.63;;
4726;SDS011;2377;51.734;8.950;2023-04-22T05:38:15;6.13;;;4.20;;
4726;SDS011;2377;51.734;8.950;2023-04-22T05:40:42;6.07;;;4.20;;
4726;SDS011;2377;51.734;8.950;2023-04-22T05:43:10;5.73;;;4.20;;
4726;SDS011;2377;51.734;8.950;2023-04-22T05:45:37;5.40;;;4.43;;
4726;SDS011;2377;51.734;8.950;2023-04-22T05:48:04;6.13;;;3.87;;
4726;SDS011;2377;51.734;8.950;2023-04-22T05:50:31;11.80;;;4.30;;
4726;SDS011;2377;51.734;8.950;2023-04-22T05:52:58;5.13;;;3.80;;
4726;SDS011;2377;51.734;8.950;2023-04-22T05:55:25;5.00;;;3.97;;
4726;SDS011;2377;51.734;8.950;2023-04-22T05:57:52;5.10;;;3.90;;
4726;SDS011;2377;51.734;8.950;2023-04-22T06:00:20;5.00;;;3.43;;
4726;SDS011;2377;51.734;8.950;2023-04-22T06:02:47;7.70;;;4.50;;
4726;SDS011;2377;51.734;8.950;2023-04-22T06:05:14;6.50;;;4.43;;
4726;SDS011;2377;51.734;8.950;2023-04-22T06:07:41;8.07;;;4.53;;
4726;SDS011;2377;51.734;8.950;2023-04-22T06:10:08;6.60;;;4.43;;
4726;SDS011;2377;51.734;8.950;2023-04-22T06:12:35;7.53;;;4.30;;
4726;SDS011;2377;51.734;8.950;2023-04-22T06:15:02;8.17;;;3.87;;
4726;SDS011;2377;51.734;8.950;2023-04-22T06:17:31;8.50;;;4.30;;
4726;SDS011;2377;51.734;8.950;2023-04-22T06:19:58;6.50;;;4.00;;
4726;SDS011;2377;51.734;8.950;2023-04-22T06:22:25;5.10;;;3.87;;
4726;SDS011;2377;51.734;8.950;2023-04-22T06:24:52;5.83;;;4.40;;
4726;SDS011;2377;51.734;8.950;2023-04-22T06:27:19;5.50;;;4.20;;
4726;SDS011;2377;51.734;8.950;2023-04-22T06:29:45;9.10;;;4.50;;
4726;SDS011;2377;51.734;8.950;2023-04-22T06:32:12;6.77;;;4.60;;
4726;SDS011;2377;51.734;8.950;2023-04-22T06:34:41;7.60;;;4.50;;
4726;SDS011;2377;51.734;8.950;2023-04-22T06:37:08;8.60;;;4.70;;
4726;SDS011;2377;51.734;8.950;2023-04-22T06:39:34;6.80;;;4.60;;
4726;SDS011;2377;51.734;8.950;2023-04-22T06:42:02;6.13;;;3.93;;
4726;SDS011;2377;51.734;8.950;2023-04-22T06:44:29;5.50;;;3.97;;
4726;SDS011;2377;51.734;8.950;2023-04-22T06:46:56;5.70;;;4.37;;
4726;SDS011;2377;51.734;8.950;2023-04-22T06:49:23;6.50;;;4.40;;
4726;SDS011;2377;51.734;8.950;2023-04-22T06:51:51;5.07;;;3.60;;
4726;SDS011;2377;51.734;8.950;2023-04-22T06:54:18;7.07;;;3.77;;
4726;SDS011;2377;51.734;8.950;2023-04-22T06:56:45;7.07;;;3.70;;
4726;SDS011;2377;51.734;8.950;2023-04-22T06:59:12;7.30;;;4.30;;
4726;SDS011;2377;51.734;8.950;2023-04-22T07:01:39;5.80;;;4.03;;
4726;SDS011;2377;51.734;8.950;2023-04-22T07:04:06;7.73;;;4.47;;
4726;SDS011;2377;51.734;8.950;2023-04-22T07:06:33;6.03;;;4.43;;
4726;SDS011;2377;51.734;8.950;2023-04-22T07:09:01;6.93;;;4.20;;
4726;SDS011;2377;51.734;8.950;2023-04-22T07:11:28;7.13;;;4.50;;
4726;SDS011;2377;51.734;8.950;2023-04-22T07:13:56;9.63;;;4.50;;
4726;SDS011;2377;51.734;8.950;2023-04-22T07:16:22;6.67;;;4.10;;
4726;SDS011;2377;51.734;8.950;2023-04-22T07:18:50;4.70;;;3.50;;
4726;SDS011;2377;51.734;8.950;2023-04-22T07:21:16;5.00;;;3.77;;
4726;SDS011;2377;51.734;8.950;2023-04-22T07:23:43;7.80;;;4.00;;
4726;SDS011;2377;51.734;8.950;2023-04-22T07:26:12;6.27;;;4.10;;
4726;SDS011;2377;51.734;8.950;2023-04-22T07:28:38;7.07;;;3.77;;
4726;SDS011;2377;51.734;8.950;2023-04-22T07:31:05;5.50;;;3.30;;
4726;SDS011;2377;51.734;8.950;2023-04-22T07:33:32;5.30;;;3.43;;
4726;SDS011;2377;51.734;8.950;2023-04-22T07:35:59;5.73;;;3.10;;
4726;SDS011;2377;51.734;8.950;2023-04-22T07:38:26;5.07;;;3.67;;
4726;SDS011;2377;51.734;8.950;2023-04-22T07:40:53;6.47;;;3.97;;
4726;SDS011;2377;51.734;8.950;2023-04-22T07:43:22;6.50;;;3.73;;
4726;SDS011;2377;51.734;8.950;2023-04-22T07:45:48;7.30;;;4.13;;
4726;SDS011;2377;51.734;8.950;2023-04-22T07:48:15;5.43;;;3.73;;
4726;SDS011;2377;51.734;8.950;2023-04-22T07:50:42;5.77;;;4.00;;
4726;SDS011;2377;51.734;8.950;2023-04-22T07:53:09;7.87;;;4.60;;
4726;SDS011;2377;51.734;8.950;2023-04-22T07:55:37;6.63;;;4.33;;
4726;SDS011;2377;51.734;8.950;2023-04-22T07:58:04;7.77;;;4.20;;
4726;SDS011;2377;51.734;8.950;2023-04-22T08:00:32;12.07;;;4.47;;
4726;SDS011;2377;51.734;8.950;2023-04-22T08:03:00;7.60;;;4.00;;
4726;SDS011;2377;51.734;8.950;2023-04-22T08:05:27;7.10;;;4.30;;
4726;SDS011;2377;51.734;8.950;2023-04-22T08:07:54;5.13;;;3.73;;
4726;SDS011;2377;51.734;8.950;2023-04-22T08:10:21;7.80;;;4.17;;
4726;SDS011;2377;51.734;8.950;2023-04-22T08:12:48;5.80;;;4.17;;
4726;SDS011;2377;51.734;8.950;2023-04-22T08:15:15;8.10;;;4.13;;
4726;SDS011;2377;51.734;8.950;2023-04-22T08:17:44;5.60;;;4.30;;
4726;SDS011;2377;51.734;8.950;2023-04-22T08:20:11;7.43;;;4.40;;
4726;SDS011;2377;51.734;8.950;2023-04-22T08:22:39;5.60;;;4.17;;
4726;SDS011;2377;51.734;8.950;2023-04-22T08:25:07;6.77;;;4.10;;
4726;SDS011;2377;51.734;8.950;2023-04-22T08:27:34;5.50;;;4.07;;
4726;SDS011;2377;51.734;8.950;2023-04-22T08:30:03;6.50;;;4.50;;
4726;SDS011;2377;51.734;8.950;2023-04-22T08:32:31;5.50;;;4.20;;
4726;SDS011;2377;51.734;8.950;2023-04-22T08:35:00;7.00;;;4.10;;
4726;SDS011;2377;51.734;8.950;2023-04-22T08:37:28;5.47;;;4.23;;
4726;SDS011;2377;51.734;8.950;2023-04-22T08:39:55;6.10;;;3.50;;
4726;SDS011;2377;51.734;8.950;2023-04-22T08:42:22;4.83;;;3.80;;
4726;SDS011;2377;51.734;8.950;2023-04-22T08:44:49;9.23;;;3.90;;
4726;SDS011;2377;51.734;8.950;2023-04-22T08:47:18;11.73;;;4.20;;
4726;SDS011;2377;51.734;8.950;2023-04-22T08:49:46;9.20;;;4.20;;
4726;SDS011;2377;51.734;8.950;2023-04-22T08:52:18;6.13;;;3.60;;
4726;SDS011;2377;51.734;8.950;2023-04-22T08:54:45;5.43;;;3.93;;
4726;SDS011;2377;51.734;8.950;2023-04-22T08:57:12;6.27;;;4.10;;
4726;SDS011;2377;51.734;8.950;2023-04-22T08:59:40;9.50;;;4.23;;
4726;SDS011;2377;51.734;8.950;2023-04-22T09:02:09;6.20;;;4.30;;
4726;SDS011;2377;51.734;8.950;2023-04-22T09:04:44;6.50;;;4.67;;
4726;SDS011;2377;51.734;8.950;2023-04-22T09:07:14;6.77;;;3.93;;
4726;SDS011;2377;51.734;8.950;2023-04-22T09:09:47;7.83;;;4.70;;
4726;SDS011;2377;51.734;8.950;2023-04-22T09:12:15;6.60;;;4.40;;
4726;SDS011;2377;51.734;8.950;2023-04-22T09:14:43;5.80;;;3.90;;
4726;SDS011;2377;51.734;8.950;2023-04-22T09:17:10;6.97;;;3.90;;
4726;SDS011;2377;51.734;8.950;2023-04-22T09:19:40;5.67;;;4.03;;
4726;SDS011;2377;51.734;8.950;2023-04-22T09:22:08;7.73;;;4.03;;
4726;SDS011;2377;51.734;8.950;2023-04-22T09:24:41;4.63;;;3.27;;
4726;SDS011;2377;51.734;8.950;2023-04-22T09:27:09;5.07;;;3.20;;
4726;SDS011;2377;51.734;8.950;2023-04-22T09:29:36;5.93;;;2.90;;
4726;SDS011;2377;51.734;8.950;2023-04-22T09:32:08;4.40;;;2.97;;
4726;SDS011;2377;51.734;8.950;2023-04-22T09:34:44;9.10;;;3.50;;
4726;SDS011;2377;51.734;8.950;2023-04-22T09:37:17;4.60;;;3.50;;
4726;SDS011;2377;51.734;8.950;2023-04-22T09:39:49;4.83;;;3.37;;
4726;SDS011;2377;51.734;8.950;2023-04-22T09:42:17;5.07;;;3.27;;
4726;SDS011;2377;51.734;8.950;2023-04-22T09:44:45;4.30;;;3.20;;
4726;SDS011;2377;51.734;8.950;2023-04-22T09:47:16;5.37;;;3.60;;
4726;SDS011;2377;51.734;8.950;2023-04-22T09:49:44;6.70;;;3.73;;
4726;SDS011;2377;51.734;8.950;2023-04-22T09:52:19;6.17;;;3.27;;
4726;SDS011;2377;51.734;8.950;2023-04-22T09:54:52;5.60;;;3.37;;
4726;SDS011;2377;51.734;8.950;2023-04-22T09:57:19;6.23;;;3.90;;
4726;SDS011;2377;51.734;8.950;2023-04-22T09:59:49;4.70;;;3.43;;
4726;SDS011;2377;51.734;8.950;2023-04-22T10:02:17;5.63;;;3.60;;
4726;SDS011;2377;51.734;8.950;2023-04-22T10:04:53;6.53;;;3.40;;
4726;SDS011;2377;51.734;8.950;2023-04-22T10:07:21;5.37;;;3.73;;
4726;SDS011;2377;51.734;8.950;2023-04-22T10:09:48;5.30;;;3.63;;
4726;SDS011;2377;51.734;8.950;2023-04-22T10:12:16;6.63;;;3.90;;
4726;SDS011;2377;51.734;8.950;2023-04-22T10:14:44;4.93;;;3.27;;
4726;SDS011;2377;51.734;8.950;2023-04-22T10:17:11;4.57;;;3.53;;
4726;SDS011;2377;51.734;8.950;2023-04-22T10:19:39;7.50;;;3.93;;
4726;SDS011;2377;51.734;8.950;2023-04-22T10:22:07;5.23;;;3.60;;
4726;SDS011;2377;51.734;8.950;2023-04-22T10:24:38;6.50;;;4.13;;
4726;SDS011;2377;51.734;8.950;2023-04-22T10:27:06;5.80;;;3.83;;
4726;SDS011;2377;51.734;8.950;2023-04-22T10:29:38;6.20;;;3.60;;
4726;SDS011;2377;51.734;8.950;2023-04-22T10:32:22;4.73;;;3.20;;
4726;SDS011;2377;51.734;8.950;2023-04-22T10:35:05;5.30;;;2.90;;
4726;SDS011;2377;51.734;8.950;2023-04-22T10:37:35;6.93;;;3.50;;
4726;SDS011;2377;51.734;8.950;2023-04-22T10:40:07;4.20;;;2.83;;
4726;SDS011;2377;51.734;8.950;2023-04-22T10:42:38;4.30;;;2.90;;
4726;SDS011;2377;51.734;8.950;2023-04-22T10:45:09;4.80;;;2.73;;
4726;SDS011;2377;51.734;8.950;2023-04-22T10:47:39;6.70;;;3.03;;
4726;SDS011;2377;51.734;8.950;2023-04-22T10:50:13;4.10;;;2.93;;
4726;SDS011;2377;51.734;8.950;2023-04-22T10:52:48;4.93;;;3.17;;
4726;SDS011;2377;51.734;8.950;2023-04-22T10:55:17;6.70;;;3.10;;
4726;SDS011;2377;51.734;8.950;2023-04-22T10:57:45;3.73;;;2.47;;
4726;SDS011;2377;51.734;8.950;2023-04-22T11:03:13;3.20;;;2.57;;
4726;SDS011;2377;51.734;8.950;2023-04-22T11:05:42;5.30;;;2.70;;
4726;SDS011;2377;51.734;8.950;2023-04-22T11:08:14;6.37;;;2.60;;
4726;SDS011;2377;51.734;8.950;2023-04-22T11:10:46;5.53;;;2.97;;
4726;SDS011;2377;51.734;8.950;2023-04-22T11:13:15;6.70;;;3.10;;
4726;SDS011;2377;51.734;8.950;2023-04-22T11:15:46;4.87;;;2.73;;
4726;SDS011;2377;51.734;8.950;2023-04-22T11:18:18;3.90;;;2.87;;
4726;SDS011;2377;51.734;8.950;2023-04-22T11:20:47;6.20;;;3.10;;
4726;SDS011;2377;51.734;8.950;2023-04-22T11:23:19;4.83;;;3.13;;
4726;SDS011;2377;51.734;8.950;2023-04-22T11:25:53;4.10;;;2.90;;
4726;SDS011;2377;51.734;8.950;2023-04-22T11:28:24;5.43;;;3.30;;
4726;SDS011;2377;51.734;8.950;2023-04-22T11:30:53;5.10;;;3.67;;
4726;SDS011;2377;51.734;8.950;2023-04-22T11:33:28;4.70;;;2.77;;
4726;SDS011;2377;51.734;8.950;2023-04-22T11:35:57;5.97;;;3.70;;
4726;SDS011;2377;51.734;8.950;2023-04-22T11:38:24;5.33;;;2.90;;
4726;SDS011;2377;51.734;8.950;2023-04-22T11:40:54;6.07;;;3.23;;
4726;SDS011;2377;51.734;8.950;2023-04-22T11:43:22;4.70;;;2.70;;
4726;SDS011;2377;51.734;8.950;2023-04-22T11:45:50;5.10;;;2.93;;
4726;SDS011;2377;51.734;8.950;2023-04-22T11:48:18;5.67;;;3.03;;
4726;SDS011;2377;51.734;8.950;2023-04-22T11:50:45;4.10;;;3.00;;
4726;SDS011;2377;51.734;8.950;2023-04-22T11:53:13;6.10;;;2.97;;
4726;SDS011;2377;51.734;8.950;2023-04-22T11:55:42;5.87;;;3.30;;
4726;SDS011;2377;51.734;8.950;2023-04-22T11:58:11;4.30;;;3.07;;
4726;SDS011;2377;51.734;8.950;2023-04-22T12:00:42;4.20;;;2.90;;
4726;SDS011;2377;51.734;8.950;2023-04-22T12:03:12;3.90;;;2.93;;
4726;SDS011;2377;51.734;8.950;2023-04-22T12:05:43;9.17;;;3.63;;
4726;SDS011;2377;51.734;8.950;2023-04-22T12:08:12;5.17;;;3.57;;
4726;SDS011;2377;51.734;8.950;2023-04-22T12:10:42;6.53;;;3.00;;
4726;SDS011;2377;51.734;8.950;2023-04-22T12:13:16;12.33;;;3.83;;
4726;SDS011;2377;51.734;8.950;2023-04-22T12:15:45;3.93;;;2.10;;
4726;SDS011;2377;51.734;8.950;2023-04-22T12:18:12;3.90;;;2.90;;
4726;SDS011;2377;51.734;8.950;2023-04-22T12:20:40;5.80;;;2.90;;
4726;SDS011;2377;51.734;8.950;2023-04-22T12:23:12;4.27;;;2.87;;
4726;SDS011;2377;51.734;8.950;2023-04-22T12:25:40;5.37;;;3.53;;
4726;SDS011;2377;51.734;8.950;2023-04-22T12:28:08;5.03;;;3.30;;
4726;SDS011;2377;51.734;8.950;2023-04-22T12:30:37;4.20;;;3.10;;
4726;SDS011;2377;51.734;8.950;2023-04-22T12:33:03;7.07;;;3.50;;
4726;SDS011;2377;51.734;8.950;2023-04-22T12:35:31;4.33;;;2.90;;
4726;SDS011;2377;51.734;8.950;2023-04-22T12:38:00;6.50;;;3.07;;
4726;SDS011;2377;51.734;8.950;2023-04-22T12:40:26;4.27;;;3.00;;
4726;SDS011;2377;51.734;8.950;2023-04-22T12:42:54;5.00;;;3.03;;
4726;SDS011;2377;51.734;8.950;2023-04-22T12:45:20;4.57;;;2.50;;
4726;SDS011;2377;51.734;8.950;2023-04-22T12:47:48;4.60;;;2.97;;
4726;SDS011;2377;51.734;8.950;2023-04-22T12:50:18;4.00;;;2.73;;
4726;SDS011;2377;51.734;8.950;2023-04-22T12:52:45;11.30;;;3.17;;
4726;SDS011;2377;51.734;8.950;2023-04-22T12:55:14;3.57;;;2.40;;
4726;SDS011;2377;51.734;8.950;2023-04-22T12:57:41;7.10;;;2.67;;
4726;SDS011;2377;51.734;8.950;2023-04-22T13:00:10;4.70;;;2.63;;
4726;SDS011;2377;51.734;8.950;2023-04-22T13:02:39;6.40;;;2.53;;
4726;SDS011;2377;51.734;8.950;2023-04-22T13:05:07;4.93;;;2.57;;
4726;SDS011;2377;51.734;8.950;2023-04-22T13:07:35;4.30;;;2.40;;
4726;SDS011;2377;51.734;8.950;2023-04-22T13:10:03;4.80;;;3.10;;
4726;SDS011;2377;51.734;8.950;2023-04-22T13:12:34;6.80;;;2.83;;
4726;SDS011;2377;51.734;8.950;2023-04-22T13:15:01;4.07;;;3.03;;
4726;SDS011;2377;51.734;8.950;2023-04-22T13:17:28;5.43;;;3.53;;
4726;SDS011;2377;51.734;8.950;2023-04-22T13:19:56;4.10;;;2.77;;
4726;SDS011;2377;51.734;8.950;2023-04-22T13:22:23;6.93;;;2.97;;
4726;SDS011;2377;51.734;8.950;2023-04-22T13:24:50;3.93;;;2.77;;
4726;SDS011;2377;51.734;8.950;2023-04-22T13:27:17;5.17;;;2.73;;
4726;SDS011;2377;51.734;8.950;2023-04-22T13:29:46;4.47;;;2.57;;
4726;SDS011;2377;51.734;8.950;2023-04-22T13:32:16;4.27;;;2.90;;
4726;SDS011;2377;51.734;8.950;2023-04-22T13:34:45;3.70;;;2.60;;
4726;SDS011;2377;51.734;8.950;2023-04-22T13:37:12;5.60;;;2.80;;
4726;SDS011;2377;51.734;8.950;2023-04-22T13:39:40;7.67;;;2.43;;
4726;SDS011;2377;51.734;8.950;2023-04-22T13:42:07;6.10;;;2.60;;
4726;SDS011;2377;51.734;8.950;2023-04-22T13:44:35;4.10;;;2.23;;
4726;SDS011;2377;51.734;8.950;2023-04-22T13:47:03;6.70;;;2.10;;
4726;SDS011;2377;51.734;8.950;2023-04-22T13:49:30;4.37;;;2.47;;
4726;SDS011;2377;51.734;8.950;2023-04-22T13:51:57;5.73;;;2.00;;
4726;SDS011;2377;51.734;8.950;2023-04-22T13:54:25;7.83;;;2.13;;
4726;SDS011;2377;51.734;8.950;2023-04-22T13:56:53;5.37;;;2.73;;
4726;SDS011;2377;51.734;8.950;2023-04-22T13:59:20;4.43;;;2.67;;
4726;SDS011;2377;51.734;8.950;2023-04-22T14:01:47;3.70;;;1.80;;
4726;SDS011;2377;51.734;8.950;2023-04-22T14:04:15;6.67;;;2.30;;
4726;SDS011;2377;51.734;8.950;2023-04-22T14:06:42;15.70;;;2.37;;
4726;SDS011;2377;51.734;8.950;2023-04-22T14:09:09;4.63;;;2.23;;
4726;SDS011;2377;51.734;8.950;2023-04-22T14:11:36;3.60;;;2.20;;
4726;SDS011;2377;51.734;8.950;2023-04-22T14:14:03;6.93;;;2.43;;
4726;SDS011;2377;51.734;8.950;2023-04-22T14:16:30;15.77;;;2.60;;
4726;SDS011;2377;51.734;8.950;2023-04-22T14:18:57;9.00;;;2.60;;
4726;SDS011;2377;51.734;8.950;2023-04-22T14:21:28;7.80;;;2.13;;
4726;SDS011;2377;51.734;8.950;2023-04-22T14:23:55;5.33;;;2.10;;
4726;SDS011;2377;51.734;8.950;2023-04-22T14:26:21;4.20;;;1.93;;
4726;SDS011;2377;51.734;8.950;2023-04-22T14:28:48;5.50;;;2.13;;
4726;SDS011;2377;51.734;8.950;2023-04-22T14:31:15;10.50;;;2.60;;
4726;SDS011;2377;51.734;8.950;2023-04-22T14:33:43;4.53;;;2.20;;
4726;SDS011;2377;51.734;8.950;2023-04-22T14:36:10;7.30;;;2.30;;
4726;SDS011;2377;51.734;8.950;2023-04-22T14:38:38;4.53;;;2.10;;
4726;SDS011;2377;51.734;8.950;2023-04-22T14:41:05;3.80;;;2.20;;
4726;SDS011;2377;51.734;8.950;2023-04-22T14:43:32;4.87;;;2.30;;
4726;SDS011;2377;51.734;8.950;2023-04-22T14:46:00;5.47;;;2.13;;
4726;SDS011;2377;51.734;8.950;2023-04-22T14:48:26;6.67;;;2.30;;
4726;SDS011;2377;51.734;8.950;2023-04-22T14:50:54;4.27;;;2.07;;
4726;SDS011;2377;51.734;8.950;2023-04-22T14:53:23;4.53;;;1.93;;
4726;SDS011;2377;51.734;8.950;2023-04-22T14:55:52;4.03;;;2.20;;
4726;SDS011;2377;51.734;8.950;2023-04-22T14:58:19;4.27;;;2.23;;
4726;SDS011;2377;51.734;8.950;2023-04-22T15:00:46;3.63;;;2.00;;
4726;SDS011;2377;51.734;8.950;2023-04-22T15:03:14;5.43;;;2.20;;
4726;SDS011;2377;51.734;8.950;2023-04-22T15:05:41;4.73;;;2.23;;
4726;SDS011;2377;51.734;8.950;2023-04-22T15:08:08;4.70;;;2.30;;
4726;SDS011;2377;51.734;8.950;2023-04-22T15:10:35;12.13;;;2.40;;
4726;SDS011;2377;51.734;8.950;2023-04-22T15:13:03;3.57;;;2.17;;
4726;SDS011;2377;51.734;8.950;2023-04-22T15:15:30;5.30;;;1.93;;
4726;SDS011;2377;51.734;8.950;2023-04-22T15:17:57;3.67;;;2.03;;
4726;SDS011;2377;51.734;8.950;2023-04-22T15:20:24;7.13;;;2.17;;
4726;SDS011;2377;51.734;8.950;2023-04-22T15:22:51;7.43;;;2.43;;